Time;durP1;ratioP1;P1;durP2;ratioP2;P2;SDS_P1;SDS_P2;PMS_P1;PMS_P2;Temp;Humidity;BMP_temperature;BMP_pressure;BME280_temperature;BME280_humidity;BME280_pressure;Samples;Min_cycle;Max_cycle;Signal;HPM_P1;HPM_P2
2024/02/10 00:00:54;;;;;;;2.70;1.30;;;;;16.10;97578.00;;;;2073809;28;20686;-57
2024/02/10 00:01:56;;;;;;;2.70;1.40;;;;;16.10;97579.00;;;;2075491;28;20213;-58
2024/02/10 00:02:57;;;;;;;2.63;1.40;;;;;16.10;97577.00;;;;2068574;28;20710;-58
2024/02/10 00:03:57;;;;;;;2.30;1.10;;;;;16.00;97575.00;;;;2074585;28;20210;-58
2024/02/10 00:04:59;;;;;;;3.13;1.00;;;;;16.00;97587.00;;;;2068416;28;20213;-58
2024/02/10 00:06:01;;;;;;;2.38;1.05;;;;;16.10;97579.00;;;;2075719;28;20220;-58
2024/02/10 00:07:02;;;;;;;3.85;1.25;;;;;16.00;97576.00;;;;2078288;28;20272;-58
2024/02/10 00:08:03;;;;;;;2.20;1.20;;;;;16.10;97580.00;;;;2077162;28;20236;-57
2024/02/10 00:09:06;;;;;;;2.23;1.23;;;;;16.10;97575.00;;;;2076874;28;21106;-58
2024/02/10 00:10:07;;;;;;;2.53;1.35;;;;;16.00;97577.00;;;;2068439;28;20486;-58
2024/02/10 00:11:08;;;;;;;3.10;1.40;;;;;16.00;97480.00;;;;2077593;28;20217;-58
2024/02/10 00:12:09;;;;;;;3.83;1.40;;;;;16.00;97579.00;;;;2078297;28;20213;-59
2024/02/10 00:13:11;;;;;;;2.88;1.50;;;;;16.00;97584.00;;;;2077376;28;21115;-58
2024/02/10 00:14:11;;;;;;;1.90;1.27;;;;;16.10;97585.00;;;;2077779;28;20301;-57
2024/02/10 00:15:13;;;;;;;2.77;1.13;;;;;16.10;97581.00;;;;2067409;28;20210;-57
2024/02/10 00:16:15;;;;;;;2.30;1.40;;;;;16.10;97583.00;;;;2076823;28;20210;-58
2024/02/10 00:17:16;;;;;;;3.05;1.15;;;;;16.10;97579.00;;;;2077649;28;20652;-57
2024/02/10 00:18:18;;;;;;;2.00;1.10;;;;;16.00;97581.00;;;;2076477;28;20219;-58
2024/02/10 00:19:20;;;;;;;2.70;1.40;;;;;16.10;97584.00;;;;2068361;28;20273;-58
2024/02/10 00:20:23;;;;;;;3.38;1.75;;;;;16.00;97578.00;;;;2076932;28;20255;-58
2024/02/10 00:21:29;;;;;;;3.40;1.70;;;;;16.00;97588.00;;;;2073765;28;20217;-57
2024/02/10 00:22:30;;;;;;;2.22;1.33;;;;;16.10;97587.00;;;;2067565;28;20214;-57
2024/02/10 00:23:30;;;;;;;2.73;1.00;;;;;16.00;97590.00;;;;2075352;28;20316;-58
2024/02/10 00:24:30;;;;;;;2.10;0.93;;;;;16.10;97610.00;;;;2068037;28;20558;-58
2024/02/10 00:25:31;;;;;;;2.97;1.30;;;;;16.00;97578.00;;;;2076783;28;20304;-58
2024/02/10 00:26:32;;;;;;;3.00;1.33;;;;;16.00;97579.00;;;;2073891;28;20568;-60
2024/02/10 00:27:32;;;;;;;2.40;1.13;;;;;16.00;97587.00;;;;2068728;28;20211;-59
2024/02/10 00:28:34;;;;;;;2.10;1.40;;;;;16.00;97481.00;;;;2077193;28;20569;-58
2024/02/10 00:29:37;;;;;;;1.85;1.00;;;;;16.00;97596.00;;;;2067503;28;20880;-57
2024/02/10 00:30:37;;;;;;;2.83;1.20;;;;;16.00;97591.00;;;;2077931;28;20293;-58
2024/02/10 00:31:42;;;;;;;3.47;1.40;;;;;16.10;97590.00;;;;2077445;28;20217;-58
2024/02/10 00:32:45;;;;;;;2.38;1.30;;;;;16.00;97597.00;;;;2082893;28;20213;-58
2024/02/10 00:33:46;;;;;;;2.95;1.35;;;;;16.00;97596.00;;;;2077892;28;20225;-57
2024/02/10 00:34:46;;;;;;;2.13;1.43;;;;;16.00;97594.00;;;;2067892;28;20649;-58
2024/02/10 00:35:47;;;;;;;3.10;1.40;;;;;16.00;97594.00;;;;2072183;28;20210;-58
2024/02/10 00:36:48;;;;;;;2.13;1.23;;;;;16.00;97594.00;;;;2078406;28;20221;-58
2024/02/10 00:37:49;;;;;;;2.10;1.13;;;;;16.00;97591.00;;;;2083552;28;20220;-58
2024/02/10 00:38:49;;;;;;;2.67;1.08;;;;;15.30;97594.00;;;;2077243;28;21093;-58
2024/02/10 00:39:49;;;;;;;3.50;1.20;;;;;16.00;97594.00;;;;2066110;28;20221;-58
2024/02/10 00:40:50;;;;;;;2.40;1.20;;;;;16.10;97594.00;;;;2077955;28;20217;-58
2024/02/10 00:41:52;;;;;;;2.70;1.60;;;;;16.10;97594.00;;;;2076751;28;20224;-58
2024/02/10 00:42:52;;;;;;;2.10;1.10;;;;;16.00;97590.00;;;;2070476;28;20209;-58
2024/02/10 00:43:53;;;;;;;2.70;1.50;;;;;16.00;97587.00;;;;2076758;28;20296;-58
2024/02/10 00:44:54;;;;;;;2.43;1.53;;;;;16.00;97581.00;;;;2067788;28;20256;-58
2024/02/10 00:45:57;;;;;;;2.00;1.00;;;;;16.00;97576.00;;;;2075261;28;20638;-58
2024/02/10 00:46:58;;;;;;;3.10;1.30;;;;;16.00;97586.00;;;;2074049;28;20752;-58
2024/02/10 00:48:00;;;;;;;3.20;1.27;;;;;16.10;97586.00;;;;2073748;28;20210;-58
2024/02/10 00:49:00;;;;;;;2.25;1.30;;;;;16.10;97592.00;;;;2077106;28;20689;-58
2024/02/10 00:50:03;;;;;;;2.40;1.13;;;;;16.00;97590.00;;;;2067970;28;20217;-58
2024/02/10 00:51:05;;;;;;;2.65;1.17;;;;;15.60;97592.00;;;;2077137;28;20684;-57
2024/02/10 00:52:17;;;;;;;2.50;1.50;;;;;16.00;97591.00;;;;2077655;28;20220;-57
2024/02/10 00:53:19;;;;;;;2.30;1.20;;;;;16.10;97584.00;;;;2076173;28;20264;-57
2024/02/10 00:54:27;;;;;;;2.25;1.33;;;;;16.00;97576.00;;;;2066825;28;20221;-58
2024/02/10 00:55:30;;;;;;;2.13;1.13;;;;;16.10;97617.00;;;;2079316;28;20221;-58
2024/02/10 00:56:30;;;;;;;2.47;1.20;;;;;16.00;97591.00;;;;2076518;28;20252;-58
2024/02/10 00:57:31;;;;;;;2.20;1.47;;;;;16.00;97595.00;;;;2077647;28;20229;-58
2024/02/10 00:58:31;;;;;;;2.40;1.10;;;;;16.10;97594.00;;;;2077705;28;20229;-58
2024/02/10 00:59:31;;;;;;;1.90;1.00;;;;;16.10;97588.00;;;;2065701;28;20206;-58
2024/02/10 01:00:32;;;;;;;2.37;1.23;;;;;16.00;97581.00;;;;2077120;28;20243;-58
2024/02/10 01:01:32;;;;;;;2.37;1.23;;;;;16.10;97591.00;;;;2077221;28;20237;-58
2024/02/10 01:02:33;;;;;;;2.63;1.33;;;;;16.00;97590.00;;;;2076752;28;20301;-58
2024/02/10 01:03:35;;;;;;;2.60;1.30;;;;;16.00;97587.00;;;;2077882;28;20327;-58
2024/02/10 01:04:35;;;;;;;1.92;0.80;;;;;16.00;97583.00;;;;2066651;28;20221;-58
2024/02/10 01:05:37;;;;;;;2.13;1.13;;;;;16.00;97579.00;;;;2077619;28;20216;-58
2024/02/10 01:06:40;;;;;;;2.15;1.20;;;;;16.10;97588.00;;;;2076565;28;20209;-58
2024/02/10 01:07:40;;;;;;;2.40;1.17;;;;;16.10;97580.00;;;;2077101;28;20225;-58
2024/02/10 01:08:46;;;;;;;2.30;1.17;;;;;16.00;97587.00;;;;2077735;28;20281;-58
2024/02/10 01:09:46;;;;;;;2.42;1.13;;;;;16.00;97588.00;;;;2066227;28;20981;-57
2024/02/10 01:10:47;;;;;;;2.10;1.30;;;;;16.00;97585.00;;;;2077233;28;20244;-59
2024/02/10 01:11:48;;;;;;;2.10;1.00;;;;;16.00;97586.00;;;;2076821;28;20215;-58
2024/02/10 01:12:48;;;;;;;2.27;1.13;;;;;16.10;97584.00;;;;2076835;28;20460;-58
2024/02/10 01:13:49;;;;;;;3.60;1.97;;;;;16.00;97588.00;;;;2075870;28;20217;-58
2024/02/10 01:14:50;;;;;;;4.15;1.30;;;;;16.10;97587.00;;;;2066718;28;20245;-57
2024/02/10 01:15:54;;;;;;;2.10;1.30;;;;;16.00;97580.00;;;;2072279;28;20205;-58
2024/02/10 01:16:55;;;;;;;2.88;1.63;;;;;16.00;97584.00;;;;2070466;28;20514;-58
2024/02/10 01:17:56;;;;;;;2.60;1.10;;;;;16.00;97583.00;;;;2072973;28;20698;-57
2024/02/10 01:18:57;;;;;;;2.40;1.00;;;;;16.00;97578.00;;;;2071767;28;20233;-58
2024/02/10 01:19:57;;;;;;;2.27;1.03;;;;;16.00;97576.00;;;;2068062;28;20233;-58
2024/02/10 01:21:00;;;;;;;2.17;1.20;;;;;16.00;97497.00;;;;2077518;28;20229;-58
2024/02/10 01:22:00;;;;;;;2.13;1.00;;;;;16.00;97578.00;;;;2076830;28;20214;-58
2024/02/10 01:23:01;;;;;;;2.00;1.20;;;;;16.00;97578.00;;;;2077010;28;20270;-57
2024/02/10 01:24:02;;;;;;;2.60;1.13;;;;;16.00;97582.00;;;;2075315;28;20210;-57
2024/02/10 01:25:04;;;;;;;2.70;1.50;;;;;16.00;97578.00;;;;2067862;28;20296;-58
2024/02/10 01:26:06;;;;;;;2.70;1.30;;;;;16.10;97587.00;;;;2075196;28;20217;-58
2024/02/10 01:27:10;;;;;;;1.98;1.10;;;;;16.00;97582.00;;;;2077695;28;20217;-58
2024/02/10 01:28:11;;;;;;;2.55;1.20;;;;;16.10;97581.00;;;;2075339;28;20205;-58
2024/02/10 01:29:11;;;;;;;2.53;1.27;;;;;16.10;97581.00;;;;2072726;28;20614;-57
2024/02/10 01:30:13;;;;;;;2.10;1.03;;;;;16.00;97581.00;;;;2064804;28;20236;-58
2024/02/10 01:31:13;;;;;;;2.20;1.00;;;;;16.00;97576.00;;;;2076855;28;20920;-57
2024/02/10 01:32:19;;;;;;;2.53;1.37;;;;;16.00;97599.00;;;;2077110;28;20239;-58
2024/02/10 01:33:19;;;;;;;2.97;1.20;;;;;16.10;97587.00;;;;2072730;28;20221;-58
2024/02/10 01:34:20;;;;;;;2.60;1.30;;;;;16.00;97580.00;;;;2067668;28;20210;-58
2024/02/10 01:35:20;;;;;;;2.10;1.00;;;;;16.00;97584.00;;;;2076277;28;20218;-57
2024/02/10 01:36:21;;;;;;;2.10;1.03;;;;;16.00;97580.00;;;;2069928;28;20462;-58
2024/02/10 01:37:21;;;;;;;1.70;0.93;;;;;16.10;97583.00;;;;2075346;28;20240;-58
2024/02/10 01:38:22;;;;;;;1.93;1.10;;;;;16.00;97586.00;;;;2075692;28;20242;-58
2024/02/10 01:39:22;;;;;;;2.70;1.40;;;;;16.00;97582.00;;;;2066783;28;20241;-58
2024/02/10 01:40:22;;;;;;;2.47;1.23;;;;;16.00;97583.00;;;;2075220;28;20210;-57
2024/02/10 01:41:23;;;;;;;2.67;1.30;;;;;16.10;97588.00;;;;2075922;28;20232;-58
2024/02/10 01:42:39;;;;;;;2.40;1.30;;;;;16.00;97583.00;;;;2076542;28;20217;-58
2024/02/10 01:43:41;;;;;;;1.70;0.90;;;;;16.00;97584.00;;;;2069733;28;20221;-58
2024/02/10 01:44:43;;;;;;;1.98;1.05;;;;;16.00;97587.00;;;;2065866;28;20236;-57
2024/02/10 01:45:45;;;;;;;3.13;1.20;;;;;16.00;97593.00;;;;2067864;28;20704;-58
2024/02/10 01:46:46;;;;;;;2.20;1.10;;;;;16.00;97585.00;;;;2075430;28;20221;-58
2024/02/10 01:47:47;;;;;;;2.60;1.03;;;;;16.10;97583.00;;;;2076273;28;20197;-57
2024/02/10 01:48:48;;;;;;;1.93;1.00;;;;;16.00;97581.00;;;;2074392;28;20455;-58
2024/02/10 01:49:48;;;;;;;2.20;1.30;;;;;16.00;97585.00;;;;2069505;28;20471;-57
2024/02/10 01:50:48;;;;;;;2.50;1.30;;;;;16.00;97577.00;;;;2077642;28;20895;-58
2024/02/10 01:51:48;;;;;;;2.77;1.20;;;;;16.00;97554.00;;;;2075719;28;21407;-58
2024/02/10 01:52:49;;;;;;;2.13;1.00;;;;;16.00;97582.00;;;;2068540;28;20999;-58
2024/02/10 01:53:50;;;;;;;2.90;1.30;;;;;16.00;97570.00;;;;2076785;28;21115;-57
2024/02/10 01:54:50;;;;;;;2.50;1.17;;;;;16.00;97582.00;;;;2068968;28;20783;-58
2024/02/10 01:55:51;;;;;;;1.97;0.90;;;;;16.00;97584.00;;;;2074157;28;20467;-57
2024/02/10 01:56:53;;;;;;;2.03;0.97;;;;;16.00;97588.00;;;;2074859;28;20209;-58
2024/02/10 01:57:57;;;;;;;2.08;1.02;;;;;16.00;97577.00;;;;2068674;28;20464;-57
2024/02/10 01:58:58;;;;;;;2.05;1.20;;;;;16.10;97584.00;;;;2075849;28;20648;-57
2024/02/10 02:00:01;;;;;;;1.90;1.03;;;;;16.00;97583.00;;;;2066833;28;20219;-58
2024/02/10 02:01:03;;;;;;;2.10;0.98;;;;;16.00;97567.00;;;;2077014;28;20584;-58
2024/02/10 02:02:03;;;;;;;3.45;1.08;;;;;16.00;97553.00;;;;2076702;28;20319;-58
2024/02/10 02:03:04;;;;;;;2.00;1.10;;;;;16.00;97583.00;;;;2065089;28;20218;-58
2024/02/10 02:04:05;;;;;;;2.30;1.10;;;;;16.00;97580.00;;;;2076077;28;21009;-58
2024/02/10 02:05:05;;;;;;;2.53;1.37;;;;;16.00;97588.00;;;;2067805;28;20602;-58
2024/02/10 02:06:06;;;;;;;2.23;1.00;;;;;16.00;97583.00;;;;2075223;28;20559;-57
2024/02/10 02:07:09;;;;;;;1.90;1.00;;;;;16.00;97582.00;;;;2077380;28;20277;-58
2024/02/10 02:08:11;;;;;;;2.47;0.95;;;;;16.00;97576.00;;;;2076032;28;20218;-57
2024/02/10 02:09:11;;;;;;;2.35;1.35;;;;;16.00;97581.00;;;;2076128;28;20217;-58
2024/02/10 02:10:11;;;;;;;2.10;0.77;;;;;16.00;97573.00;;;;2066215;28;20782;-59
2024/02/10 02:11:12;;;;;;;2.70;1.10;;;;;16.00;97587.00;;;;2075799;28;20625;-58
2024/02/10 02:12:12;;;;;;;2.53;0.97;;;;;16.00;97580.00;;;;2072853;28;20682;-58
2024/02/10 02:13:12;;;;;;;1.80;0.80;;;;;16.00;97574.00;;;;2073091;28;20224;-58
2024/02/10 02:14:14;;;;;;;2.20;0.90;;;;;16.00;97574.00;;;;2076983;28;20213;-58
2024/02/10 02:15:16;;;;;;;1.70;0.90;;;;;16.00;97580.00;;;;2074174;28;20214;-58
2024/02/10 02:16:17;;;;;;;1.67;0.80;;;;;16.00;97577.00;;;;2073079;28;20261;-57
2024/02/10 02:17:18;;;;;;;2.20;1.20;;;;;16.00;97575.00;;;;2077480;28;20228;-58
2024/02/10 02:18:18;;;;;;;2.67;1.00;;;;;16.00;97577.00;;;;2073987;28;20620;-58
2024/02/10 02:19:19;;;;;;;2.57;1.10;;;;;16.00;97569.00;;;;2067305;28;20220;-58
2024/02/10 02:20:20;;;;;;;2.20;1.20;;;;;16.00;97578.00;;;;2075187;28;20217;-58
2024/02/10 02:21:22;;;;;;;2.45;1.20;;;;;16.10;97565.00;;;;2076857;28;20712;-58
2024/02/10 02:22:25;;;;;;;2.50;1.20;;;;;16.10;97579.00;;;;2076623;28;20221;-58
2024/02/10 02:23:25;;;;;;;1.95;0.93;;;;;16.00;97576.00;;;;2077210;28;20237;-58
2024/02/10 02:24:28;;;;;;;2.30;1.10;;;;;16.00;97580.00;;;;2066624;28;20213;-58
2024/02/10 02:25:28;;;;;;;1.88;1.10;;;;;16.00;97575.00;;;;2070509;28;20284;-58
2024/02/10 02:26:29;;;;;;;2.60;1.20;;;;;15.30;97580.00;;;;2072431;28;20275;-58
2024/02/10 02:27:29;;;;;;;1.67;0.80;;;;;16.00;97575.00;;;;2076228;28;20210;-58
2024/02/10 02:28:29;;;;;;;2.23;0.90;;;;;16.00;97577.00;;;;2077254;28;20279;-59
2024/02/10 02:29:31;;;;;;;1.80;1.00;;;;;16.00;97576.00;;;;2068256;28;20205;-59
2024/02/10 02:30:35;;;;;;;3.13;1.48;;;;;16.00;97581.00;;;;2078389;28;20639;-59
2024/02/10 02:31:37;;;;;;;2.55;1.00;;;;;16.00;97578.00;;;;2076261;28;20960;-57
2024/02/10 02:32:38;;;;;;;3.00;1.30;;;;;16.00;97577.00;;;;2069455;28;20678;-57
2024/02/10 02:33:38;;;;;;;2.37;1.30;;;;;16.00;97571.00;;;;2077052;28;20248;-57
2024/02/10 02:34:41;;;;;;;1.87;1.03;;;;;16.00;97574.00;;;;2065647;28;20287;-58
2024/02/10 02:35:43;;;;;;;2.38;1.30;;;;;16.00;97569.00;;;;2077144;28;20221;-59
2024/02/10 02:36:43;;;;;;;2.13;1.00;;;;;16.00;97575.00;;;;2074945;28;20217;-58
2024/02/10 02:37:44;;;;;;;2.07;1.10;;;;;16.00;97577.00;;;;2076875;28;20214;-58
2024/02/10 02:38:47;;;;;;;2.40;1.17;;;;;16.00;97577.00;;;;2076108;28;20209;-58
2024/02/10 02:39:48;;;;;;;1.80;0.77;;;;;16.00;97570.00;;;;2067042;28;20583;-58
2024/02/10 02:40:49;;;;;;;2.10;1.10;;;;;16.00;97574.00;;;;2077077;28;20217;-58
2024/02/10 02:41:50;;;;;;;1.97;0.80;;;;;16.00;97576.00;;;;2076083;28;20982;-58
2024/02/10 02:42:50;;;;;;;2.43;1.10;;;;;16.00;97575.00;;;;2077292;28;20205;-58
2024/02/10 02:43:51;;;;;;;2.60;1.23;;;;;16.00;97572.00;;;;2078553;28;20308;-58
2024/02/10 02:44:51;;;;;;;2.13;0.80;;;;;16.00;97578.00;;;;2066859;28;20225;-57
2024/02/10 02:45:51;;;;;;;2.53;0.97;;;;;16.00;97569.00;;;;2076143;28;20201;-58
2024/02/10 02:46:54;;;;;;;1.90;0.90;;;;;16.00;97565.00;;;;2075680;28;20321;-58
2024/02/10 02:48:01;;;;;;;1.83;0.70;;;;;16.00;97577.00;;;;2076244;28;20209;-59
2024/02/10 02:49:01;;;;;;;2.35;1.23;;;;;16.00;97578.00;;;;2075119;28;20252;-58
2024/02/10 02:50:03;;;;;;;2.20;1.30;;;;;16.00;97574.00;;;;2064605;28;20707;-57
2024/02/10 02:51:03;;;;;;;2.70;1.30;;;;;16.00;97572.00;;;;2075518;28;20216;-58
2024/02/10 02:52:07;;;;;;;2.37;1.10;;;;;16.00;97576.00;;;;2076776;28;22054;-58
2024/02/10 02:53:07;;;;;;;2.45;1.00;;;;;16.00;97574.00;;;;2076298;28;20553;-58
2024/02/10 02:54:10;;;;;;;2.57;1.10;;;;;16.00;97576.00;;;;2076104;28;20271;-57
2024/02/10 02:55:11;;;;;;;2.22;1.02;;;;;16.00;97571.00;;;;2066270;28;20294;-58
2024/02/10 02:56:20;;;;;;;2.33;1.03;;;;;16.10;97567.00;;;;2072296;28;20679;-58
2024/02/10 02:57:22;;;;;;;1.60;0.80;;;;;16.00;97565.00;;;;2073230;28;20345;-58
2024/02/10 02:58:23;;;;;;;2.13;1.10;;;;;16.00;97566.00;;;;2077609;28;20230;-57
2024/02/10 02:59:24;;;;;;;2.70;1.23;;;;;16.00;97574.00;;;;2067539;28;20263;-58
2024/02/10 03:00:24;;;;;;;1.87;0.80;;;;;16.00;97562.00;;;;2076273;28;20222;-57
2024/02/10 03:01:24;;;;;;;1.70;0.90;;;;;16.00;97555.00;;;;2076549;28;20252;-58
2024/02/10 03:02:25;;;;;;;2.57;1.20;;;;;16.00;97555.00;;;;2073677;28;20221;-57
2024/02/10 03:03:26;;;;;;;1.58;0.70;;;;;16.00;97560.00;;;;2076666;28;20217;-58
2024/02/10 03:04:26;;;;;;;1.67;0.80;;;;;16.00;97559.00;;;;2067139;28;20297;-59
2024/02/10 03:05:26;;;;;;;2.07;0.80;;;;;16.00;97556.00;;;;2076483;28;20243;-57
2024/02/10 03:06:27;;;;;;;2.53;0.97;;;;;16.00;97546.00;;;;2073371;28;20217;-57
2024/02/10 03:07:30;;;;;;;2.10;1.00;;;;;16.00;97559.00;;;;2074294;28;20217;-58
2024/02/10 03:08:30;;;;;;;1.73;0.90;;;;;16.00;97550.00;;;;2077226;28;20232;-57
2024/02/10 03:09:30;;;;;;;1.80;0.97;;;;;16.00;97555.00;;;;2061012;28;20214;-58
2024/02/10 03:10:31;;;;;;;2.43;1.53;;;;;16.00;97548.00;;;;2077104;28;20738;-58
2024/02/10 03:11:31;;;;;;;1.83;0.90;;;;;16.00;97547.00;;;;2068936;28;20242;-58
2024/02/10 03:12:31;;;;;;;2.10;1.10;;;;;16.10;97555.00;;;;2071685;28;20214;-58
2024/02/10 03:13:32;;;;;;;1.50;0.80;;;;;16.00;97542.00;;;;2075496;28;20252;-58
2024/02/10 03:14:32;;;;;;;2.50;1.20;;;;;16.10;97546.00;;;;2063170;28;20225;-58
2024/02/10 03:15:37;;;;;;;2.17;1.10;;;;;16.00;97546.00;;;;2076503;28;20240;-57
2024/02/10 03:16:38;;;;;;;2.15;1.00;;;;;16.00;97543.00;;;;2076641;28;20216;-57
2024/02/10 03:17:39;;;;;;;2.55;0.95;;;;;16.00;97541.00;;;;2076399;28;20244;-58
2024/02/10 03:18:41;;;;;;;1.77;0.80;;;;;16.00;97537.00;;;;2077482;28;20226;-58
2024/02/10 03:19:45;;;;;;;1.70;0.90;;;;;16.00;97535.00;;;;2068474;28;20794;-58
2024/02/10 03:20:47;;;;;;;2.00;1.05;;;;;16.00;97538.00;;;;2078452;28;20305;-58
2024/02/10 03:21:47;;;;;;;1.70;0.80;;;;;16.00;97538.00;;;;2076753;28;20206;-58
2024/02/10 03:22:54;;;;;;;1.97;0.97;;;;;16.00;97537.00;;;;2078238;28;20214;-58
2024/02/10 03:23:54;;;;;;;1.70;0.90;;;;;16.00;97533.00;;;;2077400;28;20244;-58
2024/02/10 03:24:54;;;;;;;1.80;0.73;;;;;16.00;97537.00;;;;2067461;28;20214;-58
2024/02/10 03:25:59;;;;;;;1.90;1.00;;;;;16.00;97535.00;;;;2076970;28;20225;-57
2024/02/10 03:27:00;;;;;;;2.50;1.00;;;;;16.00;97538.00;;;;2076731;28;20615;-57
2024/02/10 03:28:03;;;;;;;2.03;0.75;;;;;16.00;97542.00;;;;2076659;28;20263;-57
2024/02/10 03:29:05;;;;;;;1.80;0.80;;;;;16.10;97533.00;;;;2078421;28;20224;-57
2024/02/10 03:30:09;;;;;;;2.08;1.10;;;;;16.00;97540.00;;;;2068408;28;20245;-58
2024/02/10 03:31:09;;;;;;;1.95;1.15;;;;;16.00;97537.00;;;;2073118;28;20226;-58
2024/02/10 03:32:09;;;;;;;2.50;1.10;;;;;16.00;97538.00;;;;2073171;28;20673;-58
2024/02/10 03:33:10;;;;;;;2.23;1.00;;;;;16.00;97549.00;;;;2077408;28;21083;-58
2024/02/10 03:34:10;;;;;;;1.67;0.93;;;;;16.00;97542.00;;;;2076208;28;20243;-57
2024/02/10 03:35:11;;;;;;;2.00;1.10;;;;;16.00;97333.00;;;;2066763;28;20222;-57
2024/02/10 03:36:11;;;;;;;1.90;1.10;;;;;16.00;97538.00;;;;2072002;28;20221;-58
2024/02/10 03:37:12;;;;;;;1.67;0.77;;;;;16.00;97534.00;;;;2075133;28;20237;-57
2024/02/10 03:38:12;;;;;;;3.05;1.13;;;;;16.00;97541.00;;;;2077215;28;20335;-58
2024/02/10 03:39:12;;;;;;;1.77;0.90;;;;;15.60;97534.00;;;;2077997;28;20225;-57
2024/02/10 03:40:19;;;;;;;2.00;1.00;;;;;16.00;97537.00;;;;2074840;28;20296;-58
2024/02/10 03:41:22;;;;;;;2.03;1.20;;;;;16.00;97536.00;;;;2077363;28;20695;-58
2024/02/10 03:42:23;;;;;;;1.90;1.10;;;;;16.00;97532.00;;;;2075248;28;20231;-57
2024/02/10 03:43:27;;;;;;;3.50;1.10;;;;;16.00;97535.00;;;;2073329;28;20661;-58
2024/02/10 03:44:27;;;;;;;1.63;0.85;;;;;16.00;97533.00;;;;2063117;28;20603;-58
2024/02/10 03:45:33;;;;;;;2.27;1.10;;;;;16.00;97532.00;;;;2071999;28;20258;-57
2024/02/10 03:46:34;;;;;;;2.05;1.15;;;;;16.00;97527.00;;;;2075102;28;20232;-58
2024/02/10 03:47:34;;;;;;;1.60;0.80;;;;;16.00;97536.00;;;;2077613;28;20272;-57
2024/02/10 03:48:39;;;;;;;1.67;0.77;;;;;16.00;97542.00;;;;2078495;28;20399;-57
2024/02/10 03:49:39;;;;;;;1.63;0.85;;;;;16.00;97540.00;;;;2067176;28;20725;-57
2024/02/10 03:50:40;;;;;;;2.00;0.87;;;;;16.00;97541.00;;;;2077850;28;20224;-57
2024/02/10 03:51:40;;;;;;;1.73;0.83;;;;;16.00;97545.00;;;;2073925;28;20225;-58
2024/02/10 03:52:41;;;;;;;2.00;1.10;;;;;16.00;97535.00;;;;2078203;28;20283;-57
2024/02/10 03:53:41;;;;;;;2.17;1.03;;;;;16.00;97534.00;;;;2077981;28;21114;-57
2024/02/10 03:54:41;;;;;;;2.33;1.10;;;;;16.00;97531.00;;;;2067559;28;20557;-57
2024/02/10 03:55:42;;;;;;;2.60;0.90;;;;;16.00;97531.00;;;;2078202;28;20225;-57
2024/02/10 03:56:46;;;;;;;1.67;0.80;;;;;16.00;97528.00;;;;2074157;28;20218;-58
2024/02/10 03:57:48;;;;;;;2.03;0.80;;;;;16.00;97535.00;;;;2073426;28;20239;-57
2024/02/10 03:58:50;;;;;;;2.20;0.77;;;;;16.00;97528.00;;;;2085416;28;20221;-58
2024/02/10 03:59:50;;;;;;;1.73;0.90;;;;;16.00;97535.00;;;;2067596;28;20229;-57
2024/02/10 04:00:51;;;;;;;1.90;0.90;;;;;16.00;97542.00;;;;2077753;28;20224;-58
2024/02/10 04:01:55;;;;;;;1.80;1.00;;;;;16.00;97528.00;;;;2075895;28;20563;-57
2024/02/10 04:02:56;;;;;;;1.83;0.95;;;;;16.00;97532.00;;;;2065959;28;20217;-57
2024/02/10 04:03:56;;;;;;;1.63;1.00;;;;;16.00;97532.00;;;;2076529;28;20694;-58
2024/02/10 04:04:58;;;;;;;1.80;0.90;;;;;16.00;97533.00;;;;2068326;28;20976;-58
2024/02/10 04:05:58;;;;;;;2.40;1.05;;;;;16.00;97531.00;;;;2077726;28;20899;-58
2024/02/10 04:06:58;;;;;;;2.30;1.03;;;;;16.00;97531.00;;;;2076736;28;20267;-58
2024/02/10 04:07:59;;;;;;;2.00;0.90;;;;;16.00;97533.00;;;;2077263;28;20209;-58
2024/02/10 04:09:01;;;;;;;1.97;0.97;;;;;16.00;97527.00;;;;2076765;28;20233;-58
2024/02/10 04:10:02;;;;;;;2.00;1.00;;;;;16.00;97527.00;;;;2058956;28;20868;-58
2024/02/10 04:11:06;;;;;;;2.10;1.07;;;;;16.00;97534.00;;;;2075493;28;20300;-58
2024/02/10 04:12:06;;;;;;;1.75;0.88;;;;;16.00;97532.00;;;;2075879;28;20206;-58
2024/02/10 04:13:08;;;;;;;1.53;0.80;;;;;16.00;97532.00;;;;2076385;28;20202;-58
2024/02/10 04:14:09;;;;;;;3.00;0.98;;;;;16.00;97533.00;;;;2077270;28;20202;-58
2024/02/10 04:15:13;;;;;;;2.13;1.10;;;;;16.00;97528.00;;;;2064793;28;20209;-57
2024/02/10 04:16:13;;;;;;;2.53;0.95;;;;;16.00;97530.00;;;;2076881;28;20249;-58
2024/02/10 04:17:13;;;;;;;2.10;0.90;;;;;16.00;97535.00;;;;2078160;28;20224;-58
2024/02/10 04:18:14;;;;;;;1.97;0.97;;;;;16.00;97534.00;;;;2077144;28;20278;-58
2024/02/10 04:19:14;;;;;;;2.20;1.00;;;;;16.00;97531.00;;;;2069944;28;20218;-58
2024/02/10 04:20:18;;;;;;;2.47;1.00;;;;;16.00;97534.00;;;;2067044;28;20240;-58
2024/02/10 04:21:19;;;;;;;1.50;0.70;;;;;16.00;97538.00;;;;2073529;28;20209;-57
2024/02/10 04:22:23;;;;;;;1.77;0.80;;;;;16.00;97537.00;;;;2076193;28;20238;-58
2024/02/10 04:23:29;;;;;;;1.75;0.90;;;;;16.00;97534.00;;;;2065773;28;20229;-58
2024/02/10 04:24:29;;;;;;;1.50;0.70;;;;;16.00;97538.00;;;;2066803;28;20272;-58
2024/02/10 04:25:33;;;;;;;2.57;1.10;;;;;16.00;97538.00;;;;2072199;28;20217;-58
2024/02/10 04:26:33;;;;;;;2.08;1.00;;;;;16.00;97403.00;;;;2076482;28;20241;-58
2024/02/10 04:27:33;;;;;;;1.50;0.70;;;;;16.10;97404.00;;;;2077226;28;20626;-57
2024/02/10 04:28:34;;;;;;;1.60;0.70;;;;;16.00;97539.00;;;;2078070;28;20588;-58
2024/02/10 04:29:35;;;;;;;2.20;0.93;;;;;16.00;97539.00;;;;2066448;28;20691;-57
2024/02/10 04:30:36;;;;;;;2.25;1.05;;;;;16.00;97539.00;;;;2077719;28;20213;-58
2024/02/10 04:31:39;;;;;;;2.27;0.70;;;;;16.00;97541.00;;;;2077995;28;20215;-58
2024/02/10 04:32:42;;;;;;;1.60;0.70;;;;;16.00;97543.00;;;;2076278;28;20209;-58
2024/02/10 04:33:46;;;;;;;1.80;0.80;;;;;16.00;97543.00;;;;2077511;28;20303;-58
2024/02/10 04:34:47;;;;;;;1.70;0.70;;;;;16.00;97540.00;;;;2067177;28;20217;-57
2024/02/10 04:35:47;;;;;;;1.77;0.80;;;;;16.00;97547.00;;;;2076836;28;20216;-57
2024/02/10 04:36:50;;;;;;;1.70;0.80;;;;;16.00;97545.00;;;;2075935;28;20214;-58
2024/02/10 04:37:51;;;;;;;1.63;0.70;;;;;16.00;97542.00;;;;2077769;28;20325;-58
2024/02/10 04:38:51;;;;;;;1.80;0.73;;;;;16.00;97539.00;;;;2076262;28;20218;-58
2024/02/10 04:39:52;;;;;;;1.80;0.87;;;;;15.60;97542.00;;;;2067387;28;20224;-58
2024/02/10 04:40:52;;;;;;;1.90;1.10;;;;;16.00;97540.00;;;;2075277;28;20244;-58
2024/02/10 04:41:53;;;;;;;1.60;0.67;;;;;16.00;97562.00;;;;2077722;28;20221;-58
2024/02/10 04:42:54;;;;;;;1.80;0.80;;;;;16.00;97544.00;;;;2075753;28;20563;-58
2024/02/10 04:43:54;;;;;;;2.67;0.87;;;;;16.00;97550.00;;;;2077069;28;20274;-58
2024/02/10 04:44:58;;;;;;;1.90;0.70;;;;;16.00;97543.00;;;;2065787;28;20255;-58
2024/02/10 04:45:58;;;;;;;3.67;0.95;;;;;16.00;97541.00;;;;2073510;28;20221;-58
2024/02/10 04:46:59;;;;;;;2.73;1.07;;;;;16.00;97547.00;;;;2076573;28;20597;-57
2024/02/10 04:48:00;;;;;;;1.67;0.80;;;;;16.00;97538.00;;;;2076687;28;20263;-57
2024/02/10 04:49:02;;;;;;;1.60;0.70;;;;;16.00;97541.00;;;;2076592;28;20293;-58
2024/02/10 04:50:02;;;;;;;2.25;0.80;;;;;16.00;97539.00;;;;2068109;28;20210;-58
2024/02/10 04:51:03;;;;;;;1.70;0.80;;;;;16.00;97544.00;;;;2075797;28;20237;-57
2024/02/10 04:52:03;;;;;;;1.63;0.70;;;;;16.00;97537.00;;;;2077839;28;20211;-58
2024/02/10 04:53:06;;;;;;;1.93;0.83;;;;;16.00;97544.00;;;;2076960;28;20212;-58
2024/02/10 04:54:09;;;;;;;1.60;0.90;;;;;16.00;97547.00;;;;2077144;28;20267;-58
2024/02/10 04:55:09;;;;;;;1.77;0.60;;;;;16.00;97534.00;;;;2067612;28;20235;-58
2024/02/10 04:56:16;;;;;;;2.13;0.80;;;;;16.00;97545.00;;;;2075204;28;20220;-58
2024/02/10 04:57:18;;;;;;;1.73;0.68;;;;;16.00;97545.00;;;;2074929;28;20642;-57
2024/02/10 04:58:21;;;;;;;1.60;0.88;;;;;16.00;97553.00;;;;2074775;28;20675;-58
2024/02/10 04:59:27;;;;;;;1.80;0.82;;;;;16.00;97541.00;;;;2067908;28;20217;-58
2024/02/10 05:00:27;;;;;;;2.30;1.00;;;;;16.00;97543.00;;;;2075630;28;20565;-58
2024/02/10 05:01:34;;;;;;;1.50;0.60;;;;;16.00;97543.00;;;;2077712;28;20278;-58
2024/02/10 05:02:34;;;;;;;2.00;0.85;;;;;16.00;97546.00;;;;2074508;28;20210;-58
2024/02/10 05:03:35;;;;;;;2.17;0.80;;;;;16.00;97542.00;;;;2077735;28;20237;-58
2024/02/10 05:04:41;;;;;;;2.03;0.80;;;;;16.00;97547.00;;;;2066668;28;20225;-58
2024/02/10 05:05:41;;;;;;;1.70;0.70;;;;;16.00;97551.00;;;;2086904;28;20247;-59
2024/02/10 05:06:44;;;;;;;1.60;0.70;;;;;16.00;97553.00;;;;2079268;28;20213;-58
2024/02/10 05:07:46;;;;;;;1.60;0.60;;;;;16.00;97544.00;;;;2071732;28;20218;-58
2024/02/10 05:08:46;;;;;;;1.77;0.95;;;;;16.00;97552.00;;;;2068158;28;20301;-58